You are not logged in, Click here to log in
Daytona Beach International Airport / KDAB Daytona Beach
ICAO: KDAB Country: Daytona Beach
Latitude: 29.1799 Longitude: -81.0581
Total Arrivals: 1 Total Departures: 0
Latest Arrival: 9WAA247 (KDFW-KDAB)Stone. Chang Latest Departure: (-).
Scenery: https://en.wikipedia.org/wiki/K%C5%8Dchi_Airport
METAR : KDAB 261253Z 19006KT 10SM FEW075 BKN110 BKN200 19/16 A2990 RMK AO2 SLP124 T01940156

Daytona Beach International Airport